Time;durP1;ratioP1;P1;durP2;ratioP2;P2;SDS_P1;SDS_P2;PMS_P1;PMS_P2;Temp;Humidity;BMP_temperature;BMP_pressure;BME280_temperature;BME280_humidity;BME280_pressure;Samples;Min_cycle;Max_cycle;Signal;HPM_P1;HPM_P2
2023/04/05 00:01:29;;;;;;;7.28;3.40;;;8.00;69.60;;;;;;5034499;28;20536;-74
2023/04/05 00:03:56;;;;;;;7.93;4.03;;;7.90;71.40;;;;;;5039226;28;20502;-74
2023/04/05 00:06:27;;;;;;;9.60;4.25;;;7.90;72.50;;;;;;5043416;28;20029;-74
2023/04/05 00:08:57;;;;;;;8.30;4.43;;;7.90;71.20;;;;;;5035118;28;20021;-75
2023/04/05 00:11:24;;;;;;;7.18;3.60;;;7.80;70.20;;;;;;5043724;28;20451;-74
2023/04/05 00:14:02;;;;;;;8.18;3.70;;;7.80;68.50;;;;;;5034633;28;20021;-74
2023/04/05 00:16:29;;;;;;;6.45;3.80;;;7.80;67.50;;;;;;5038722;28;20476;-75
2023/04/05 00:18:59;;;;;;;7.45;3.70;;;7.70;66.70;;;;;;5040922;28;20535;-75
2023/04/05 00:21:24;;;;;;;8.68;4.45;;;7.70;66.90;;;;;;5047658;28;20427;-75
2023/04/05 00:23:58;;;;;;;6.75;3.90;;;7.80;66.50;;;;;;5039433;28;20032;-75
2023/04/05 00:26:25;;;;;;;7.00;3.83;;;7.70;66.50;;;;;;5038651;28;20112;-75
2023/04/05 00:28:54;;;;;;;6.63;3.35;;;7.70;65.60;;;;;;5045244;28;20029;-75
2023/04/05 00:31:20;;;;;;;7.85;3.85;;;7.70;67.20;;;;;;5048479;28;20120;-73
2023/04/05 00:33:46;;;;;;;7.63;4.07;;;7.70;66.10;;;;;;5036877;28;20121;-75
2023/04/05 00:36:13;;;;;;;10.23;5.03;;;7.60;65.00;;;;;;5051835;28;20807;-74
2023/04/05 00:38:39;;;;;;;9.10;4.28;;;7.60;64.50;;;;;;5037509;28;20025;-74
2023/04/05 00:41:05;;;;;;;9.13;4.43;;;7.60;68.30;;;;;;5050695;28;20025;-74
2023/04/05 00:43:31;;;;;;;7.10;3.47;;;7.50;66.40;;;;;;5048581;28;20494;-75
2023/04/05 00:45:56;;;;;;;8.75;3.53;;;7.50;67.20;;;;;;5047219;28;20036;-74
2023/04/05 00:48:24;;;;;;;7.95;3.17;;;7.50;69.10;;;;;;5048698;28;20029;-73
2023/04/05 00:50:50;;;;;;;7.82;4.20;;;7.50;68.80;;;;;;5044929;28;20248;-75
2023/04/05 00:53:18;;;;;;;7.63;3.85;;;7.40;68.40;;;;;;5049607;28;20486;-74
2023/04/05 00:55:47;;;;;;;10.65;4.05;;;7.40;68.40;;;;;;5042117;28;20029;-74
2023/04/05 00:58:23;;;;;;;9.38;4.25;;;7.40;68.20;;;;;;5050254;28;20021;-75
2023/04/05 01:01:26;;;;;;;10.38;5.10;;;7.40;69.00;;;;;;5051742;28;20025;-75
2023/04/05 01:04:01;;;;;;;8.45;4.25;;;7.30;68.80;;;;;;5039357;28;20043;-75
2023/04/05 01:06:29;;;;;;;8.13;4.28;;;7.30;67.80;;;;;;5048894;28;20627;-74
2023/04/05 01:09:23;;;;;;;9.40;4.38;;;7.30;67.10;;;;;;5040649;28;20479;-74
2023/04/05 01:11:51;;;;;;;8.40;4.57;;;7.20;66.50;;;;;;5047527;28;20021;-75
2023/04/05 01:14:17;;;;;;;10.30;4.55;;;7.20;66.90;;;;;;5049230;28;20083;-74
2023/04/05 01:16:42;;;;;;;11.52;5.32;;;7.20;66.30;;;;;;5036580;28;20029;-75
2023/04/05 01:19:08;;;;;;;9.13;4.50;;;7.10;66.20;;;;;;5046394;28;20543;-74
2023/04/05 01:21:37;;;;;;;11.68;5.45;;;7.10;66.70;;;;;;5038396;28;20013;-75
2023/04/05 01:24:37;;;;;;;10.43;4.93;;;7.10;66.60;;;;;;5048506;28;20041;-74
2023/04/05 01:27:23;;;;;;;10.48;5.22;;;7.10;66.60;;;;;;5039066;28;20048;-73
2023/04/05 01:30:07;;;;;;;9.88;4.63;;;7.10;66.40;;;;;;5050005;28;20441;-75
2023/04/05 01:32:39;;;;;;;14.15;6.28;;;7.00;66.30;;;;;;5048147;28;20462;-74
2023/04/05 01:35:14;;;;;;;11.48;5.90;;;6.90;66.70;;;;;;5030335;28;20032;-74
2023/04/05 01:37:40;;;;;;;11.57;6.03;;;6.90;67.20;;;;;;5045445;28;20028;-74
2023/04/05 01:40:07;;;;;;;12.25;5.40;;;6.90;67.00;;;;;;5049561;28;20078;-74
2023/04/05 01:42:34;;;;;;;10.43;5.38;;;6.90;67.20;;;;;;5042782;28;20619;-75
2023/04/05 01:45:00;;;;;;;10.05;4.82;;;6.90;67.00;;;;;;5050465;28;20549;-75
2023/04/05 01:47:26;;;;;;;10.88;5.30;;;6.80;67.00;;;;;;5043498;28;20017;-74
2023/04/05 01:49:51;;;;;;;14.35;5.88;;;6.80;67.10;;;;;;5045072;28;20080;-75
2023/04/05 01:52:17;;;;;;;10.18;5.03;;;6.80;67.20;;;;;;5051728;28;20047;-74
2023/04/05 01:54:43;;;;;;;12.13;5.97;;;6.80;67.60;;;;;;5051773;28;20047;-73
2023/04/05 01:57:08;;;;;;;10.38;5.57;;;6.70;67.80;;;;;;5050271;28;20021;-75
2023/04/05 01:59:34;;;;;;;12.82;7.25;;;6.70;67.70;;;;;;5048391;28;20147;-75
2023/04/05 02:02:00;;;;;;;11.35;6.10;;;6.70;67.70;;;;;;5033011;28;20025;-75
2023/04/05 02:04:25;;;;;;;12.93;6.18;;;6.70;68.00;;;;;;5042920;28;20036;-74
2023/04/05 02:06:51;;;;;;;9.20;5.68;;;6.60;68.20;;;;;;5039911;28;20086;-75
2023/04/05 02:09:17;;;;;;;10.05;6.13;;;6.60;68.30;;;;;;5051444;28;20101;-75
2023/04/05 02:11:42;;;;;;;12.50;5.68;;;6.50;68.90;;;;;;5045986;28;20025;-73
2023/04/05 02:14:09;;;;;;;11.98;6.93;;;6.50;68.80;;;;;;5048790;28;20029;-75
2023/04/05 02:16:35;;;;;;;11.98;5.65;;;6.50;68.90;;;;;;5031644;28;20048;-75
2023/04/05 02:19:01;;;;;;;14.68;5.38;;;6.50;68.80;;;;;;5044303;28;20072;-75
2023/04/05 02:21:26;;;;;;;10.10;5.63;;;6.40;68.90;;;;;;5051127;28;20672;-75
2023/04/05 02:23:53;;;;;;;10.10;5.70;;;6.40;69.30;;;;;;5048562;28;20120;-74
2023/04/05 02:26:20;;;;;;;11.25;5.90;;;6.40;69.10;;;;;;5050768;28;20039;-74
2023/04/05 02:28:46;;;;;;;12.27;6.40;;;6.40;69.20;;;;;;5047178;28;20029;-74
2023/04/05 02:31:12;;;;;;;11.55;6.38;;;6.40;69.40;;;;;;5042023;28;20353;-74
2023/04/05 02:33:39;;;;;;;11.80;6.45;;;6.40;70.00;;;;;;5043155;28;20029;-74
2023/04/05 02:36:06;;;;;;;9.23;5.25;;;6.40;69.00;;;;;;5048370;28;20017;-75
2023/04/05 02:38:35;;;;;;;11.82;6.40;;;6.30;69.00;;;;;;5041089;28;20387;-75
2023/04/05 02:41:01;;;;;;;11.73;6.07;;;6.30;69.20;;;;;;5039098;28;20029;-75
2023/04/05 02:43:26;;;;;;;11.77;6.88;;;6.30;69.30;;;;;;5036755;28;20052;-75
2023/04/05 02:45:54;;;;;;;14.13;6.78;;;6.30;69.50;;;;;;5049286;28;20032;-74
2023/04/05 02:48:19;;;;;;;12.85;7.40;;;6.20;69.50;;;;;;5036397;28;20379;-74
2023/04/05 02:50:49;;;;;;;11.68;6.88;;;6.20;69.50;;;;;;5049465;28;20029;-74
2023/04/05 02:53:16;;;;;;;11.55;6.70;;;6.20;69.40;;;;;;5047032;28;20030;-75
2023/04/05 02:55:42;;;;;;;11.68;6.40;;;6.20;69.30;;;;;;5048669;28;20025;-75
2023/04/05 02:58:08;;;;;;;14.38;6.30;;;6.20;69.50;;;;;;5048046;28;20028;-74
2023/04/05 03:00:33;;;;;;;12.05;5.90;;;6.20;69.70;;;;;;5044103;28;20720;-75
2023/04/05 03:02:59;;;;;;;11.25;6.20;;;6.20;69.50;;;;;;5035255;28;20503;-75
2023/04/05 03:05:25;;;;;;;10.45;5.75;;;6.10;69.60;;;;;;5041209;28;20030;-75
2023/04/05 03:07:54;;;;;;;12.68;6.35;;;6.10;69.60;;;;;;5044969;28;20745;-75
2023/04/05 03:10:27;;;;;;;11.30;5.82;;;6.10;69.70;;;;;;5038489;28;20032;-76
2023/04/05 03:12:53;;;;;;;13.38;6.82;;;6.10;69.60;;;;;;5043998;28;20021;-75
2023/04/05 03:15:19;;;;;;;13.85;6.55;;;6.10;69.80;;;;;;5035886;28;20044;-73
2023/04/05 03:17:44;;;;;;;14.90;7.05;;;6.10;69.90;;;;;;5043381;28;20026;-75
2023/04/05 03:20:11;;;;;;;11.77;6.28;;;6.00;69.90;;;;;;5037529;28;20103;-74
2023/04/05 03:22:36;;;;;;;11.00;5.85;;;6.00;69.90;;;;;;5039624;28;20029;-74
2023/04/05 03:25:02;;;;;;;16.35;6.88;;;6.00;69.90;;;;;;5037350;28;20025;-77
2023/04/05 03:27:28;;;;;;;11.82;6.50;;;6.00;69.70;;;;;;5048877;28;20510;-74
2023/04/05 03:29:54;;;;;;;14.95;7.15;;;6.00;70.00;;;;;;5042145;28;20086;-75
2023/04/05 03:32:20;;;;;;;10.75;5.78;;;6.00;70.00;;;;;;5043886;28;20048;-74
2023/04/05 03:34:45;;;;;;;11.52;6.38;;;6.00;70.10;;;;;;5028252;28;20018;-74
2023/04/05 03:37:11;;;;;;;10.05;6.50;;;6.00;70.00;;;;;;5044488;28;20400;-74
2023/04/05 03:39:38;;;;;;;11.23;6.30;;;5.90;70.10;;;;;;5029262;28;20025;-75
2023/04/05 03:42:03;;;;;;;16.02;6.88;;;5.90;70.10;;;;;;5043830;28;20116;-75
2023/04/05 03:44:29;;;;;;;11.70;6.03;;;5.90;70.40;;;;;;5049704;28;20119;-75
2023/04/05 03:46:55;;;;;;;12.52;6.65;;;5.90;70.30;;;;;;5044023;28;20133;-76
2023/04/05 03:49:23;;;;;;;10.48;6.03;;;5.90;70.20;;;;;;5040356;28;20022;-74
2023/04/05 03:51:49;;;;;;;10.65;6.28;;;5.90;70.20;;;;;;5046138;28;20025;-74
2023/04/05 03:54:15;;;;;;;13.10;7.57;;;5.90;70.30;;;;;;5043843;28;20021;-75
2023/04/05 03:56:40;;;;;;;12.73;6.97;;;5.90;70.40;;;;;;5039583;28;20429;-73
2023/04/05 03:59:06;;;;;;;14.60;7.70;;;5.90;70.30;;;;;;5033649;28;20116;-74
2023/04/05 04:01:32;;;;;;;11.60;6.88;;;5.90;70.30;;;;;;5046678;28;20017;-73
2023/04/05 04:03:59;;;;;;;14.07;6.47;;;5.90;70.60;;;;;;5044278;28;20021;-74
2023/04/05 04:06:25;;;;;;;14.68;7.18;;;5.90;70.70;;;;;;5038374;28;20033;-73
2023/04/05 04:08:51;;;;;;;13.23;7.38;;;5.90;70.80;;;;;;5051280;28;20136;-74
2023/04/05 04:11:17;;;;;;;12.75;7.38;;;5.80;70.90;;;;;;5043667;28;20103;-74
2023/04/05 04:13:42;;;;;;;13.68;7.78;;;5.80;70.90;;;;;;5047708;28;20087;-73
2023/04/05 04:16:08;;;;;;;11.07;6.57;;;5.80;71.20;;;;;;5050617;28;20132;-73
2023/04/05 04:18:33;;;;;;;11.25;6.85;;;5.80;71.20;;;;;;5046256;28;20071;-73
2023/04/05 04:21:05;;;;;;;12.15;6.50;;;5.80;71.20;;;;;;5034356;28;20059;-74
2023/04/05 04:23:33;;;;;;;11.30;5.82;;;5.70;71.10;;;;;;5044003;28;20029;-75
2023/04/05 04:26:00;;;;;;;12.45;6.93;;;5.80;71.40;;;;;;5042856;28;20043;-74
2023/04/05 04:28:26;;;;;;;12.98;6.45;;;5.70;71.10;;;;;;5051534;28;20029;-74
2023/04/05 04:30:52;;;;;;;12.48;7.10;;;5.70;71.10;;;;;;5031515;28;20396;-74
2023/04/05 04:33:18;;;;;;;13.20;6.45;;;5.70;71.60;;;;;;5045972;28;20025;-74
2023/04/05 04:35:45;;;;;;;14.30;6.85;;;5.60;71.60;;;;;;5047511;28;20025;-75
2023/04/05 04:38:17;;;;;;;12.80;5.95;;;5.60;71.70;;;;;;5040207;28;20017;-75
2023/04/05 04:40:49;;;;;;;11.65;7.18;;;5.60;71.80;;;;;;5038706;28;20026;-74
2023/04/05 04:43:18;;;;;;;15.45;7.35;;;5.60;72.00;;;;;;5041648;28;20153;-74
2023/04/05 04:45:48;;;;;;;14.52;6.95;;;5.60;72.00;;;;;;5040267;28;20036;-73
2023/04/05 04:48:17;;;;;;;14.75;8.15;;;5.60;72.10;;;;;;5042216;28;20033;-74
2023/04/05 04:50:44;;;;;;;12.10;7.35;;;5.60;72.10;;;;;;5041783;28;20496;-73
2023/04/05 04:53:10;;;;;;;17.33;8.65;;;5.60;72.00;;;;;;5041947;28;20440;-73
2023/04/05 04:55:37;;;;;;;16.15;7.30;;;5.60;72.10;;;;;;5039592;28;20152;-73
2023/04/05 04:58:09;;;;;;;12.75;7.32;;;5.60;72.10;;;;;;5045176;28;20104;-73
2023/04/05 05:00:37;;;;;;;12.95;8.20;;;5.60;72.20;;;;;;5041515;28;20111;-73
2023/04/05 05:03:02;;;;;;;15.57;8.25;;;5.60;72.10;;;;;;5042905;28;20059;-74
2023/04/05 05:05:28;;;;;;;12.65;7.13;;;5.60;72.10;;;;;;5041157;28;20475;-73
2023/04/05 05:07:55;;;;;;;13.68;7.60;;;5.50;72.00;;;;;;5040392;28;20112;-73
2023/04/05 05:10:20;;;;;;;11.23;6.60;;;5.60;72.20;;;;;;5043497;28;20510;-73
2023/04/05 05:12:50;;;;;;;15.63;7.07;;;5.60;72.10;;;;;;5038464;28;20033;-75
2023/04/05 05:15:16;;;;;;;11.65;6.88;;;5.60;72.00;;;;;;5047160;28;20022;-73
2023/04/05 05:17:41;;;;;;;15.15;7.82;;;5.60;71.80;;;;;;5046618;28;20569;-74
2023/04/05 05:20:09;;;;;;;11.30;6.00;;;5.60;71.90;;;;;;5044588;28;20513;-74
2023/04/05 05:22:38;;;;;;;11.93;7.45;;;5.60;72.00;;;;;;5042943;28;20024;-74
2023/04/05 05:25:08;;;;;;;14.15;7.70;;;5.60;72.10;;;;;;5046398;28;20696;-74
2023/04/05 05:27:34;;;;;;;;;;;5.60;72.60;;;;;;5040421;28;20028;-75
2023/04/05 05:30:00;;;;;;;15.85;7.80;;;5.60;72.10;;;;;;5043762;28;19909;-74
2023/04/05 05:32:25;;;;;;;13.07;6.97;;;5.60;72.00;;;;;;5039390;28;20017;-74
2023/04/05 05:34:51;;;;;;;16.60;7.80;;;5.60;72.20;;;;;;5044266;28;20064;-74
2023/04/05 05:37:17;;;;;;;12.90;7.05;;;5.70;72.40;;;;;;5035065;28;20026;-74
2023/04/05 05:39:43;;;;;;;10.80;7.03;;;5.70;72.10;;;;;;5036555;28;20021;-75
2023/04/05 05:42:09;;;;;;;13.25;7.45;;;5.70;71.80;;;;;;5043751;28;20055;-75
2023/04/05 05:44:35;;;;;;;19.80;8.10;;;5.80;72.00;;;;;;5032393;28;20395;-74
2023/04/05 05:47:01;;;;;;;11.50;6.93;;;5.80;71.80;;;;;;5034386;28;20036;-74
2023/04/05 05:49:28;;;;;;;15.90;7.57;;;5.80;71.20;;;;;;5040485;28;20027;-74
2023/04/05 05:51:53;;;;;;;18.45;7.85;;;5.70;71.30;;;;;;5036671;28;20025;-73
2023/04/05 05:54:19;;;;;;;16.20;8.60;;;5.70;71.40;;;;;;5033597;28;20051;-74
2023/04/05 05:56:45;;;;;;;13.65;7.47;;;5.80;71.70;;;;;;5043495;28;20013;-74
2023/04/05 05:59:10;;;;;;;15.57;8.32;;;5.80;71.70;;;;;;5043108;28;20028;-76
2023/04/05 06:01:37;;;;;;;15.18;7.50;;;5.90;72.00;;;;;;5041811;28;20036;-74
2023/04/05 06:04:03;;;;;;;15.13;6.85;;;5.90;71.70;;;;;;5039091;28;20718;-73
2023/04/05 06:06:29;;;;;;;12.43;7.18;;;6.00;72.30;;;;;;5042610;28;20025;-74
2023/04/05 06:08:55;;;;;;;14.45;7.55;;;6.00;71.90;;;;;;5033564;28;20550;-74
2023/04/05 06:11:22;;;;;;;12.68;7.50;;;6.00;70.90;;;;;;5033012;28;20032;-73
2023/04/05 06:13:53;;;;;;;11.40;6.47;;;6.10;71.40;;;;;;5036603;28;20514;-73
2023/04/05 06:16:20;;;;;;;14.80;8.02;;;6.20;71.20;;;;;;5038674;28;20032;-73
2023/04/05 06:18:46;;;;;;;11.52;7.65;;;6.30;70.40;;;;;;5049489;28;20041;-73
2023/04/05 06:21:12;;;;;;;15.27;8.23;;;6.30;70.90;;;;;;5033541;28;20398;-72
2023/04/05 06:23:40;;;;;;;15.13;7.43;;;6.30;70.10;;;;;;5034196;28;20515;-72
2023/04/05 06:26:06;;;;;;;12.30;7.35;;;6.30;69.90;;;;;;5034778;28;20025;-73
2023/04/05 06:28:33;;;;;;;13.40;7.28;;;6.40;69.70;;;;;;5037619;28;20523;-72
2023/04/05 06:30:59;;;;;;;14.55;7.88;;;6.50;69.60;;;;;;5037186;28;20134;-74
2023/04/05 06:33:25;;;;;;;11.35;6.88;;;6.50;69.80;;;;;;5038243;28;20108;-75
2023/04/05 06:35:51;;;;;;;9.15;5.95;;;6.60;69.30;;;;;;5036356;28;20033;-73
2023/04/05 06:38:17;;;;;;;9.98;4.35;;;6.70;71.80;;;;;;5039899;28;20447;-74
2023/04/05 06:40:43;;;;;;;16.13;6.00;;;6.90;82.90;;;;;;5033494;28;20132;-74
2023/04/05 06:43:09;;;;;;;13.63;7.35;;;7.00;81.60;;;;;;5037500;28;20016;-74
2023/04/05 06:45:35;;;;;;;14.43;7.47;;;7.10;74.10;;;;;;5034359;28;20065;-74
2023/04/05 06:48:02;;;;;;;11.45;6.82;;;7.20;69.60;;;;;;5023378;28;20013;-73
2023/04/05 06:50:27;;;;;;;16.35;7.93;;;7.30;68.80;;;;;;5042039;28;20826;-74
2023/04/05 06:52:53;;;;;;;11.88;6.28;;;7.40;68.30;;;;;;5037877;28;20108;-73
2023/04/05 06:55:19;;;;;;;13.32;8.02;;;7.50;67.20;;;;;;5042778;28;20017;-73
2023/04/05 06:57:45;;;;;;;12.88;7.53;;;7.60;66.80;;;;;;5037873;28;20403;-73
2023/04/05 07:00:12;;;;;;;14.75;7.75;;;7.70;66.90;;;;;;5046404;28;20028;-73
2023/04/05 07:02:38;;;;;;;11.90;7.55;;;7.80;65.40;;;;;;5044924;28;20127;-72
2023/04/05 07:05:04;;;;;;;11.57;7.00;;;7.80;64.90;;;;;;5042831;28;20459;-74
2023/04/05 07:07:41;;;;;;;14.38;7.55;;;7.90;64.60;;;;;;5032673;28;20403;-73
2023/04/05 07:10:07;;;;;;;14.65;7.68;;;7.90;64.80;;;;;;5033601;28;20028;-74
2023/04/05 07:12:33;;;;;;;12.27;7.28;;;8.00;64.20;;;;;;5040411;28;20513;-73
2023/04/05 07:14:59;;;;;;;13.88;7.40;;;8.00;63.90;;;;;;5043279;28;20033;-74
2023/04/05 07:17:25;;;;;;;15.50;8.60;;;8.10;64.50;;;;;;5031089;28;20021;-75
2023/04/05 07:19:50;;;;;;;12.77;7.60;;;8.30;64.50;;;;;;5047963;28;20530;-72
2023/04/05 07:22:16;;;;;;;17.25;8.70;;;8.40;63.10;;;;;;5036229;28;20406;-73
2023/04/05 07:24:45;;;;;;;16.95;8.07;;;8.40;63.70;;;;;;5046162;28;20522;-72
2023/04/05 07:27:11;;;;;;;12.27;6.90;;;8.50;63.40;;;;;;5049813;28;20025;-73
2023/04/05 07:29:39;;;;;;;12.13;7.38;;;8.60;63.00;;;;;;5050368;28;20032;-74
2023/04/05 07:32:06;;;;;;;10.45;6.63;;;8.70;62.70;;;;;;5047320;28;20073;-73
2023/04/05 07:34:35;;;;;;;14.27;7.18;;;8.80;62.10;;;;;;5041848;28;20024;-73
2023/04/05 07:37:01;;;;;;;11.80;7.57;;;9.00;60.40;;;;;;5035905;28;20029;-74
2023/04/05 07:39:27;;;;;;;12.23;6.97;;;9.10;61.10;;;;;;5039480;28;20545;-75
2023/04/05 07:41:53;;;;;;;15.45;6.82;;;9.30;60.90;;;;;;5038903;28;20040;-73
2023/04/05 07:44:18;;;;;;;14.82;7.00;;;9.40;60.80;;;;;;5044421;28;20079;-74
2023/04/05 07:46:44;;;;;;;12.65;6.82;;;9.60;59.50;;;;;;5044595;28;20025;-73
2023/04/05 07:49:11;;;;;;;10.73;7.20;;;9.80;59.00;;;;;;5042679;28;20028;-73
2023/04/05 07:51:37;;;;;;;12.20;6.13;;;9.80;57.90;;;;;;5041442;28;20017;-74
2023/04/05 07:54:06;;;;;;;9.48;5.22;;;10.00;58.40;;;;;;5042711;28;20017;-74
2023/04/05 07:56:32;;;;;;;11.20;6.15;;;10.20;58.00;;;;;;5042887;28;20014;-75
2023/04/05 07:58:58;;;;;;;12.15;7.22;;;10.30;58.50;;;;;;5042495;28;20028;-75
2023/04/05 08:01:26;;;;;;;11.80;6.60;;;10.50;57.20;;;;;;5043878;28;20024;-73
2023/04/05 08:03:53;;;;;;;12.80;7.53;;;10.50;55.70;;;;;;5040670;28;21105;-74
2023/04/05 08:06:19;;;;;;;12.50;6.88;;;10.60;55.50;;;;;;5041811;28;20018;-72
2023/04/05 08:08:46;;;;;;;12.98;6.25;;;10.70;56.20;;;;;;5041675;28;20025;-74
2023/04/05 08:11:12;;;;;;;16.13;7.00;;;10.80;55.60;;;;;;5041647;28;20813;-74
2023/04/05 08:13:40;;;;;;;12.32;6.70;;;10.80;55.10;;;;;;5043352;28;20506;-73
2023/04/05 08:16:09;;;;;;;10.07;6.25;;;10.90;54.90;;;;;;5044396;28;20482;-73
2023/04/05 08:18:36;;;;;;;10.55;7.18;;;11.00;54.30;;;;;;5042629;28;20052;-73
2023/04/05 08:21:01;;;;;;;11.10;7.32;;;11.10;54.20;;;;;;5045995;28;20051;-74
2023/04/05 08:23:27;;;;;;;12.00;6.25;;;11.10;54.50;;;;;;5042757;28;20024;-74
2023/04/05 08:25:53;;;;;;;9.00;5.57;;;11.30;54.80;;;;;;5045484;28;20029;-79
2023/04/05 08:28:19;;;;;;;10.02;6.15;;;11.50;53.70;;;;;;5041300;28;20035;-79
2023/04/05 08:30:45;;;;;;;12.38;7.20;;;11.60;53.80;;;;;;5040349;28;20022;-73
2023/04/05 08:33:11;;;;;;;12.48;5.57;;;11.70;51.90;;;;;;5040650;28;20882;-73
2023/04/05 08:35:38;;;;;;;16.30;5.88;;;11.90;52.50;;;;;;5041087;28;20021;-73
2023/04/05 08:38:05;;;;;;;10.13;5.85;;;12.00;52.50;;;;;;5042927;28;20052;-73
2023/04/05 08:40:42;;;;;;;17.55;6.55;;;12.20;54.00;;;;;;5044520;28;20061;-74
2023/04/05 08:43:52;;;;;;;14.60;6.55;;;12.30;51.60;;;;;;5041703;28;20498;-74
2023/04/05 08:46:19;;;;;;;10.70;5.03;;;12.30;51.00;;;;;;5022468;28;20837;-73
2023/04/05 08:48:45;;;;;;;9.10;6.10;;;12.40;51.80;;;;;;5021002;28;20030;-74
2023/04/05 08:51:11;;;;;;;9.88;6.13;;;12.40;49.90;;;;;;5025362;28;20067;-76
2023/04/05 08:53:37;;;;;;;11.65;6.47;;;12.50;49.40;;;;;;5041308;28;20067;-75
2023/04/05 08:56:04;;;;;;;10.95;6.40;;;12.50;49.10;;;;;;5042240;28;20032;-76
2023/04/05 08:58:33;;;;;;;12.73;6.32;;;12.50;49.30;;;;;;5032601;28;20098;-75
2023/04/05 09:01:00;;;;;;;9.32;5.65;;;12.50;49.50;;;;;;5037734;28;20056;-76
2023/04/05 09:03:34;;;;;;;9.20;5.75;;;12.50;48.80;;;;;;5048823;28;20091;-75
2023/04/05 09:06:06;;;;;;;11.48;6.18;;;12.50;48.30;;;;;;5034670;28;20800;-75
2023/04/05 09:08:32;;;;;;;10.05;5.78;;;12.50;48.90;;;;;;5048783;28;20153;-75
2023/04/05 09:10:58;;;;;;;10.45;5.15;;;12.50;47.30;;;;;;5049585;28;20096;-74
2023/04/05 09:13:23;;;;;;;12.20;6.45;;;12.60;46.90;;;;;;5049476;28;20821;-73
2023/04/05 09:15:49;;;;;;;10.45;5.72;;;12.50;47.40;;;;;;5037768;28;20036;-74
2023/04/05 09:18:15;;;;;;;12.32;6.68;;;12.50;47.70;;;;;;5045848;28;20515;-76
2023/04/05 09:20:41;;;;;;;11.93;5.90;;;12.70;48.60;;;;;;5049051;28;20033;-74
2023/04/05 09:23:07;;;;;;;9.00;4.95;;;13.00;47.20;;;;;;5043969;28;20021;-75
2023/04/05 09:25:41;;;;;;;9.77;5.20;;;13.20;47.30;;;;;;5043772;28;20024;-73
2023/04/05 09:28:09;;;;;;;9.82;5.70;;;13.30;50.00;;;;;;5050373;28;20032;-74
2023/04/05 09:30:36;;;;;;;13.55;5.93;;;13.40;46.80;;;;;;5050600;28;20029;-74
2023/04/05 09:33:09;;;;;;;10.00;5.45;;;13.20;45.50;;;;;;5051478;28;20021;-74
2023/04/05 09:35:35;;;;;;;10.13;5.13;;;13.20;48.70;;;;;;5048267;28;20104;-73
2023/04/05 09:38:04;;;;;;;11.07;5.70;;;13.40;47.70;;;;;;5041806;28;20039;-74
2023/04/05 09:41:00;;;;;;;10.63;5.28;;;13.60;49.60;;;;;;5036755;28;20112;-75
2023/04/05 09:43:36;;;;;;;12.35;5.03;;;13.80;52.40;;;;;;5039281;28;20479;-73
2023/04/05 09:46:02;;;;;;;8.90;4.35;;;13.80;48.00;;;;;;5039661;28;20034;-73
2023/04/05 09:48:50;;;;;;;11.88;5.22;;;13.70;46.70;;;;;;5040781;28;20028;-74
2023/04/05 09:51:17;;;;;;;9.63;5.53;;;13.90;46.50;;;;;;5034983;28;20021;-74
2023/04/05 09:54:03;;;;;;;9.90;5.30;;;14.20;44.80;;;;;;5041014;28;20021;-73
2023/04/05 09:56:31;;;;;;;10.13;5.82;;;14.30;45.10;;;;;;5035785;28;20030;-75
2023/04/05 09:59:01;;;;;;;10.02;6.32;;;14.40;43.80;;;;;;5039770;28;20074;-75
2023/04/05 10:01:29;;;;;;;9.52;5.50;;;14.40;43.10;;;;;;5037248;28;20088;-74
2023/04/05 10:03:57;;;;;;;10.57;5.65;;;14.40;42.70;;;;;;5038887;28;20028;-74
2023/04/05 10:06:22;;;;;;;8.98;5.28;;;14.30;41.50;;;;;;5034961;28;20022;-74
2023/04/05 10:08:50;;;;;;;9.27;5.25;;;14.30;42.30;;;;;;5039200;28;20040;-74
2023/04/05 10:11:19;;;;;;;8.27;5.15;;;14.40;42.90;;;;;;5041277;28;20036;-74
2023/04/05 10:13:47;;;;;;;7.30;4.43;;;14.50;45.20;;;;;;5037220;28;20109;-75
2023/04/05 10:16:20;;;;;;;8.00;3.97;;;14.60;44.20;;;;;;5039938;28;20268;-73
2023/04/05 10:18:54;;;;;;;13.07;5.88;;;14.80;46.40;;;;;;5047127;28;20049;-74
2023/04/05 10:21:28;;;;;;;9.07;5.70;;;15.10;45.40;;;;;;5037800;28;20021;-74
2023/04/05 10:24:05;;;;;;;12.32;6.40;;;14.90;43.80;;;;;;5043350;28;20489;-73
2023/04/05 10:26:47;;;;;;;10.00;6.50;;;14.70;42.30;;;;;;5037363;28;20036;-74
2023/04/05 10:29:28;;;;;;;11.48;5.47;;;14.70;42.30;;;;;;5040713;28;20063;-74
2023/04/05 10:32:40;;;;;;;9.10;5.40;;;14.70;42.20;;;;;;5035176;28;20033;-76
2023/04/05 10:35:15;;;;;;;7.65;5.15;;;14.70;43.30;;;;;;5041583;28;20033;-74
2023/04/05 10:37:56;;;;;;;9.73;5.80;;;14.80;43.70;;;;;;5045333;28;20029;-74
2023/04/05 10:40:24;;;;;;;8.35;4.60;;;14.80;42.10;;;;;;5036032;28;20104;-75
2023/04/05 10:42:50;;;;;;;8.85;5.57;;;14.90;42.00;;;;;;5033152;28;20516;-75
2023/04/05 10:45:18;;;;;;;10.60;5.55;;;15.00;41.90;;;;;;5033321;28;20128;-74
2023/04/05 10:48:15;;;;;;;11.35;5.40;;;15.20;41.80;;;;;;5036262;28;20025;-74
2023/04/05 10:50:43;;;;;;;11.18;5.70;;;15.20;41.40;;;;;;5038384;28;20025;-75
2023/04/05 10:53:09;;;;;;;11.55;6.75;;;15.10;39.40;;;;;;5040727;28;20147;-75
2023/04/05 10:55:35;;;;;;;9.15;4.07;;;15.20;39.90;;;;;;5035294;28;20406;-75
2023/04/05 10:58:02;;;;;;;8.40;4.22;;;15.40;45.90;;;;;;5039434;28;20025;-75
2023/04/05 11:00:28;;;;;;;10.02;5.28;;;15.50;40.50;;;;;;5038653;28;20020;-75
2023/04/05 11:02:56;;;;;;;8.25;4.88;;;15.60;40.40;;;;;;5045570;28;20056;-75
2023/04/05 11:05:31;;;;;;;7.80;4.90;;;15.70;37.90;;;;;;5037572;28;20056;-75
2023/04/05 11:08:01;;;;;;;9.15;5.43;;;15.60;37.90;;;;;;5036210;28;20032;-76
2023/04/05 11:10:27;;;;;;;7.57;4.90;;;15.60;38.00;;;;;;5041864;28;20048;-76
2023/04/05 11:12:56;;;;;;;8.68;5.28;;;15.70;38.20;;;;;;5047870;28;20036;-75
2023/04/05 11:15:27;;;;;;;7.75;3.72;;;15.80;39.10;;;;;;5048062;28;20040;-75
2023/04/05 11:18:05;;;;;;;11.27;6.18;;;15.90;46.10;;;;;;5046368;28;20056;-75
2023/04/05 11:20:44;;;;;;;8.23;5.40;;;16.00;40.20;;;;;;5036628;28;20112;-75
2023/04/05 11:23:11;;;;;;;7.60;4.63;;;16.20;38.80;;;;;;5048193;28;20036;-74
2023/04/05 11:25:41;;;;;;;9.40;5.30;;;16.30;40.90;;;;;;5039170;28;20036;-73
2023/04/05 11:28:07;;;;;;;9.38;5.18;;;16.30;39.40;;;;;;5047126;28;20100;-74
2023/04/05 11:30:55;;;;;;;5.57;2.92;;;16.30;43.30;;;;;;5032855;28;20029;-77
2023/04/05 11:33:45;;;;;;;5.20;1.83;;;16.40;46.70;;;;;;5028696;28;20029;-76
2023/04/05 11:36:15;;;;;;;4.80;1.80;;;16.70;63.00;;;;;;5047638;28;20212;-77
2023/04/05 11:38:43;;;;;;;7.25;4.05;;;16.90;61.80;;;;;;5041487;28;20513;-76
2023/04/05 11:41:16;;;;;;;5.18;2.35;;;17.00;55.80;;;;;;5041021;28;20115;-77
2023/04/05 11:43:46;;;;;;;5.80;2.75;;;17.10;56.60;;;;;;5040454;28;20029;-75
2023/04/05 11:46:14;;;;;;;5.93;2.65;;;17.20;54.80;;;;;;5027560;28;20030;-76
2023/04/05 11:48:41;;;;;;;6.80;2.80;;;17.30;58.70;;;;;;5042866;28;20024;-76
2023/04/05 11:51:08;;;;;;;5.07;2.63;;;17.30;58.90;;;;;;5033708;28;20649;-76
2023/04/05 11:53:34;;;;;;;4.22;2.15;;;17.40;61.10;;;;;;5044441;28;20009;-76
2023/04/05 11:56:07;;;;;;;5.90;2.72;;;17.40;56.80;;;;;;5024342;28;20049;-76
2023/04/05 11:58:33;;;;;;;6.22;3.60;;;17.40;60.70;;;;;;5038055;28;20670;-77
2023/04/05 12:01:01;;;;;;;6.35;3.13;;;17.40;60.60;;;;;;5035743;28;20041;-76
2023/04/05 12:03:27;;;;;;;4.32;2.13;;;17.50;60.00;;;;;;5037310;28;20037;-77
2023/04/05 12:05:55;;;;;;;3.70;1.90;;;17.50;62.60;;;;;;5039425;28;20492;-76
2023/04/05 12:08:21;;;;;;;6.35;1.92;;;17.40;65.30;;;;;;5038963;28;20052;-77
2023/04/05 12:11:00;;;;;;;4.13;2.17;;;17.50;66.20;;;;;;5041822;28;20475;-77
2023/04/05 12:13:31;;;;;;;4.70;1.90;;;17.70;67.10;;;;;;5044639;28;20074;-77
2023/04/05 12:16:01;;;;;;;5.35;2.55;;;17.80;66.80;;;;;;5033249;28;20033;-75
2023/04/05 12:18:29;;;;;;;7.32;3.50;;;17.90;68.50;;;;;;5036161;28;20487;-75
2023/04/05 12:20:56;;;;;;;4.78;2.22;;;18.00;64.50;;;;;;5033529;28;20677;-76
2023/04/05 12:23:22;;;;;;;5.45;3.10;;;18.10;65.30;;;;;;5033913;28;20025;-75
2023/04/05 12:25:49;;;;;;;6.13;3.08;;;18.00;57.40;;;;;;5046066;28;20124;-76
2023/04/05 12:28:15;;;;;;;4.63;2.03;;;18.00;58.00;;;;;;5043915;28;20021;-75
2023/04/05 12:30:56;;;;;;;6.28;3.25;;;18.00;58.70;;;;;;5051211;28;20028;-76
2023/04/05 12:33:34;;;;;;;5.50;2.65;;;18.10;59.60;;;;;;5042906;28;20028;-76
2023/04/05 12:36:04;;;;;;;5.20;3.05;;;18.10;59.00;;;;;;5052531;28;20141;-76
2023/04/05 12:38:30;;;;;;;5.53;2.80;;;18.10;53.80;;;;;;5038104;28;20108;-74
2023/04/05 12:41:00;;;;;;;6.90;3.85;;;18.20;53.40;;;;;;5051234;28;20032;-76
2023/04/05 12:43:36;;;;;;;;;;;18.10;57.30;;;;;;5051157;28;20025;-76
2023/04/05 12:46:07;;;;;;;4.72;2.72;;;18.10;63.00;;;;;;5039709;28;20279;-75
2023/04/05 12:48:36;;;;;;;3.22;1.55;;;18.10;65.40;;;;;;5048319;28;20045;-75
2023/04/05 12:51:14;;;;;;;4.18;2.05;;;18.10;69.40;;;;;;5050743;28;20051;-76
2023/04/05 12:53:46;;;;;;;6.10;2.88;;;18.20;69.20;;;;;;5038253;28;20025;-76
2023/04/05 12:56:14;;;;;;;5.50;2.80;;;18.20;67.00;;;;;;5050902;28;20533;-76